Terminal Aerodrome Forecast
Issued by NWS Houston/Galveston, TX

Home | Current Version | Previous Version | Text Only | Print | Product List | Glossary On
Versions: 1 2 3 4 5 6 7 8 9 10 11 12 13
000
FTUS44 KHGX 131728
TAFGLS
TAF
KGLS 131728Z 1318/1418 20008KT P6SM BKN300
     FM140600 24006KT P6SM BKN300
     FM141400 VRB05KT P6SM FEW040 OVC250=

USA.gov is the U.S. government's official web portal to all federal, state and local government web resources and services.